Time;durP1;ratioP1;P1;durP2;ratioP2;P2;SDS_P1;SDS_P2;PMS_P1;PMS_P2;Temp;Humidity;BMP_temperature;BMP_pressure;BME280_temperature;BME280_humidity;BME280_pressure;Samples;Min_cycle;Max_cycle;Signal;HPM_P1;HPM_P2
2022/10/03 00:02:11;;;;;;;3.05;1.37;;;;;;;7.94;100.00;98117.45;1718407;82;22259;-73
2022/10/03 00:04:47;;;;;;;;;;;;;;;7.95;100.00;98119.88;1722410;83;21065;-69
2022/10/03 00:07:56;;;;;;;3.02;1.60;;;;;;;8.01;100.00;98120.05;1715633;82;20132;-67
2022/10/03 00:11:11;;;;;;;3.70;1.67;;;;;;;7.96;100.00;98121.50;1715932;82;21053;-68
2022/10/03 00:13:59;;;;;;;2.75;1.80;;;;;;;7.92;100.00;98113.70;1640660;87;21493;-72
2022/10/03 00:16:43;;;;;;;3.47;2.03;;;;;;;7.94;100.00;98110.13;1728364;82;21095;-69
2022/10/03 00:19:51;;;;;;;2.30;1.70;;;;;;;7.99;100.00;98109.26;1721740;82;21008;-70
2022/10/03 00:22:54;;;;;;;2.55;1.52;;;;;;;7.96;100.00;98103.08;1679518;84;21611;-71
2022/10/03 00:25:38;;;;;;;2.80;1.52;;;;;;;8.01;100.00;98099.73;1707502;82;21055;-72
2022/10/03 00:28:45;;;;;;;3.70;2.12;;;;;;;8.06;100.00;98096.14;1731251;82;21065;-66
2022/10/03 00:31:15;;;;;;;3.40;1.62;;;;;;;8.05;100.00;98095.87;1685790;82;21119;-66
2022/10/03 00:33:59;;;;;;;4.47;1.40;;;;;;;8.09;100.00;98101.52;1742277;82;21003;-72
2022/10/03 00:36:36;;;;;;;2.98;1.80;;;;;;;8.09;100.00;98097.45;1726820;82;21140;-68
2022/10/03 00:39:47;;;;;;;3.70;1.95;;;;;;;8.09;100.00;98091.48;1709244;82;21060;-67
2022/10/03 00:42:40;;;;;;;3.17;1.77;;;;;;;8.09;100.00;98092.84;1716122;82;21082;-68
2022/10/03 00:45:46;;;;;;;3.00;1.80;;;;;;;8.09;100.00;98083.35;1717305;82;21095;-68
2022/10/03 00:48:27;;;;;;;3.90;1.80;;;;;;;8.11;100.00;98083.07;1750850;82;21094;-67
2022/10/03 00:51:36;;;;;;;4.17;1.82;;;;;;;8.09;100.00;98079.83;1748245;82;21432;-67
2022/10/03 00:54:27;;;;;;;2.75;1.70;;;;;;;8.12;100.00;98082.76;1721245;82;21052;-67
2022/10/03 00:57:30;;;;;;;4.65;2.30;;;;;;;8.13;100.00;98077.59;1736173;82;21599;-66
2022/10/03 01:00:29;;;;;;;3.42;1.87;;;;;;;8.08;100.00;98074.95;1733847;82;21075;-69
2022/10/03 01:03:11;;;;;;;3.37;2.00;;;;;;;8.09;100.00;98075.22;1723176;82;21061;-73
2022/10/03 01:06:13;;;;;;;5.12;2.15;;;;;;;8.13;100.00;98074.08;1740886;81;21112;-67
2022/10/03 01:09:12;;;;;;;2.37;1.70;;;;;;;8.14;100.00;98065.67;1722660;83;21045;-68
2022/10/03 01:11:47;;;;;;;4.03;1.80;;;;;;;8.16;100.00;98064.80;1722923;82;21609;-69
2022/10/03 01:14:41;;;;;;;4.53;1.85;;;;;;;8.19;100.00;98057.44;1723776;82;21486;-68
2022/10/03 01:17:37;;;;;;;5.87;1.90;;;;;;;8.15;100.00;98056.98;1752463;81;21514;-67
2022/10/03 01:20:12;;;;;;;2.62;1.70;;;;;;;8.15;100.00;98059.70;1749800;81;21584;-68
2022/10/03 01:23:10;;;;;;;3.70;2.30;;;;;;;8.19;100.00;98046.59;1741875;82;21111;-67
2022/10/03 01:25:51;;;;;;;3.58;2.12;;;;;;;8.24;100.00;98051.94;1720955;82;21084;-67
2022/10/03 01:31:51;;;;;;;3.47;2.20;;;;;;;8.16;100.00;98059.39;1726996;82;21053;-72
2022/10/03 01:34:35;;;;;;;4.35;2.25;;;;;;;8.20;100.00;98056.34;1724231;82;20987;-68
2022/10/03 01:37:29;;;;;;;4.12;2.60;;;;;;;8.24;100.00;98053.30;1721666;82;21108;-66
2022/10/03 01:40:22;;;;;;;3.20;2.37;;;;;;;8.23;100.00;98061.17;1721759;82;21100;-68
2022/10/03 01:43:19;;;;;;;5.37;2.60;;;;;;;8.22;100.00;98058.77;1722780;82;21597;-67
2022/10/03 01:46:16;;;;;;;5.17;2.87;;;;;;;8.23;100.00;98055.74;1733026;82;21074;-67
2022/10/03 01:49:13;;;;;;;3.80;2.80;;;;;;;8.26;100.00;98055.15;1751304;82;21023;-68
2022/10/03 01:52:21;;;;;;;3.95;2.58;;;;;;;8.24;100.00;98057.36;1737921;81;21066;-70
2022/10/03 01:55:08;;;;;;;4.45;3.08;;;;;;;8.25;100.00;98058.17;1724517;82;21549;-67
2022/10/03 01:57:52;;;;;;;3.72;2.65;;;;;;;8.25;100.00;98060.34;1721090;83;21101;-66
2022/10/03 02:00:22;;;;;;;4.58;3.10;;;;;;;8.25;100.00;98053.56;1701114;82;21170;-70
2022/10/03 02:03:30;;;;;;;3.42;2.80;;;;;;;8.24;100.00;98051.13;1732804;82;21070;-70
2022/10/03 02:06:11;;;;;;;4.05;3.05;;;;;;;8.25;100.00;98052.20;1733709;82;21599;-71
2022/10/03 02:09:19;;;;;;;4.92;3.00;;;;;;;8.30;100.00;98048.61;1738972;82;21085;-71
2022/10/03 02:12:10;;;;;;;5.47;2.90;;;;;;;8.33;100.00;98046.11;1738789;82;21120;-67
2022/10/03 02:14:49;;;;;;;4.00;2.60;;;;;;;8.28;100.00;98048.92;1724582;82;21062;-67
2022/10/03 02:17:56;;;;;;;3.42;2.83;;;;;;;8.27;100.00;98049.17;1722615;83;21437;-65
2022/10/03 02:21:01;;;;;;;4.80;2.95;;;;;;;8.29;100.00;98053.22;1729803;82;21546;-68
2022/10/03 02:23:37;;;;;;;4.45;2.67;;;;;;;8.27;100.00;98051.89;1747001;82;21036;-65
2022/10/03 02:27:02;;;;;;;3.98;2.40;;;;;;;8.22;100.00;98049.28;1728703;82;21051;-67
2022/10/03 02:30:11;;;;;;;3.42;2.37;;;;;;;8.26;100.00;98046.20;1722781;83;20999;-67
2022/10/03 02:33:39;;;;;;;3.00;2.25;;;;;;;8.25;100.00;98046.78;1697116;83;21569;-70
2022/10/03 02:36:43;;;;;;;4.92;2.20;;;;;;;8.27;100.00;98047.82;1730787;82;21353;-68
2022/10/03 02:39:44;;;;;;;5.78;2.62;;;;;;;8.18;100.00;98045.00;1721493;83;20999;-68
2022/10/03 02:42:32;;;;;;;2.30;1.80;;;;;;;8.18;100.00;98042.30;1750001;82;21066;-68
2022/10/03 02:45:39;;;;;;;3.22;2.45;;;;;;;8.22;100.00;98044.64;1745585;82;21048;-65
2022/10/03 02:48:48;;;;;;;6.30;2.10;;;;;;;8.17;100.00;98037.97;1727654;82;21620;-68
2022/10/03 02:51:44;;;;;;;5.17;2.00;;;;;;;8.12;100.00;98042.11;1732061;82;21069;-69
2022/10/03 02:55:04;;;;;;;2.87;1.98;;;;;;;8.13;100.00;98035.59;1739573;82;21081;-69
2022/10/03 02:57:56;;;;;;;4.10;1.90;;;;;;;8.14;100.00;98035.05;1723994;82;21098;-69
2022/10/03 03:00:59;;;;;;;4.58;1.95;;;;;;;8.09;100.00;98036.47;1725494;82;21135;-68
2022/10/03 03:03:47;;;;;;;4.25;1.80;;;;;;;8.14;100.00;98042.63;1713713;82;21683;-66
2022/10/03 03:07:02;;;;;;;4.87;1.80;;;;;;;8.21;100.00;98034.92;1732242;82;21110;-66
2022/10/03 03:10:06;;;;;;;7.33;2.50;;;;;;;8.18;100.00;98036.88;1750912;81;21791;-69
2022/10/03 03:13:20;;;;;;;5.25;2.40;;;;;;;8.14;100.00;98025.02;1751063;81;21050;-65
2022/10/03 03:16:12;;;;;;;3.75;2.52;;;;;;;8.17;100.00;98030.38;1725087;82;21131;-68
2022/10/03 03:19:17;;;;;;;5.12;2.92;;;;;;;8.15;100.00;98033.95;1725320;82;21467;-68
2022/10/03 03:22:09;;;;;;;3.37;2.60;;;;;;;8.13;100.00;98022.04;1722162;82;21163;-71
2022/10/03 03:24:50;;;;;;;4.60;2.77;;;;;;;8.16;100.00;98031.47;1696286;83;20965;-71
2022/10/03 03:27:31;;;;;;;3.90;3.00;;;;;;;8.10;100.00;98032.13;1726944;82;21096;-68
2022/10/03 03:30:20;;;;;;;4.92;3.00;;;;;;;8.09;100.00;98028.34;1748946;82;21000;-72
2022/10/03 03:33:06;;;;;;;8.20;3.58;;;;;;;8.06;100.00;98028.94;1735283;82;21560;-69
2022/10/03 03:35:53;;;;;;;5.53;3.67;;;;;;;8.05;100.00;98033.55;1721072;83;21076;-68
2022/10/03 03:38:40;;;;;;;4.53;3.63;;;;;;;8.05;100.00;98020.00;1698506;82;21034;-68
2022/10/03 03:41:46;;;;;;;5.05;3.60;;;;;;;8.04;100.00;98021.67;1731249;82;21100;-70
2022/10/03 03:44:54;;;;;;;4.97;3.62;;;;;;;7.93;100.00;98023.74;1736875;82;21065;-70
2022/10/03 03:48:04;;;;;;;5.05;3.37;;;;;;;7.92;100.00;98024.28;1675290;85;21110;-70
2022/10/03 03:50:47;;;;;;;4.80;3.45;;;;;;;7.93;100.00;98016.97;1659512;85;21115;-68
2022/10/03 03:53:31;;;;;;;5.78;3.85;;;;;;;7.92;100.00;98023.48;1655686;86;21114;-67
2022/10/03 03:56:18;;;;;;;7.28;3.98;;;;;;;7.89;100.00;98023.53;1664241;85;21117;-67
2022/10/03 03:59:30;;;;;;;5.90;4.10;;;;;;;7.86;100.00;98024.12;1703454;82;21085;-69
2022/10/03 04:02:44;;;;;;;7.28;3.50;;;;;;;7.86;100.00;98013.83;1720831;82;21115;-73
2022/10/03 04:05:41;;;;;;;5.30;3.87;;;;;;;7.90;100.00;98016.21;1724947;82;21118;-70
2022/10/03 04:08:58;;;;;;;5.65;3.55;;;;;;;7.90;100.00;98027.83;1728944;82;21088;-67
2022/10/03 04:12:13;;;;;;;5.70;3.80;;;;;;;7.89;100.00;98030.30;1704703;82;21138;-68
2022/10/03 04:15:01;;;;;;;4.87;3.60;;;;;;;7.91;100.00;98017.80;1672876;85;21058;-68
2022/10/03 04:20:43;;;;;;;4.35;3.45;;;;;;;7.93;100.00;98014.26;1676263;84;21146;-68
2022/10/03 04:23:24;;;;;;;5.55;3.22;;;;;;;7.93;100.00;98004.23;1695808;84;21078;-68
2022/10/03 04:26:26;;;;;;;4.60;3.05;;;;;;;7.99;100.00;98010.36;1697077;84;21170;-67
2022/10/03 04:29:07;;;;;;;3.77;2.80;;;;;;;8.03;100.00;98005.15;1697365;84;21067;-67
2022/10/03 04:32:06;;;;;;;4.00;2.65;;;;;;;8.09;100.00;97995.82;1691985;84;21664;-68
2022/10/03 04:35:14;;;;;;;3.70;3.02;;;;;;;8.15;100.00;97998.14;1669148;86;22157;-68
2022/10/03 04:37:49;;;;;;;4.85;3.20;;;;;;;8.13;100.00;98000.91;1669098;86;21516;-66
2022/10/03 04:40:26;;;;;;;4.30;2.67;;;;;;;8.14;100.00;97992.48;1633938;84;21096;-67
2022/10/03 04:43:13;;;;;;;4.37;3.05;;;;;;;8.24;100.00;97984.17;1716389;82;21122;-68
2022/10/03 04:45:59;;;;;;;5.90;2.77;;;;;;;8.31;100.00;97982.45;1718498;82;21107;-67
2022/10/03 04:48:53;;;;;;;5.30;3.52;;;;;;;8.35;100.00;97988.34;1736076;81;21194;-68
2022/10/03 04:51:55;;;;;;;4.95;3.05;;;;;;;8.32;100.00;97975.39;1727819;82;21090;-68
2022/10/03 04:54:37;;;;;;;4.35;3.08;;;;;;;8.33;100.00;97978.33;1675728;85;21134;-68
2022/10/03 04:57:54;;;;;;;5.33;3.20;;;;;;;8.42;100.00;97988.75;1645620;84;21090;-67
2022/10/03 05:00:27;;;;;;;5.00;2.70;;;;;;;8.55;100.00;97980.91;1671051;86;21138;-66
2022/10/03 05:03:21;;;;;;;5.30;2.95;;;;;;;8.58;100.00;97978.40;1655350;85;21083;-66
2022/10/03 05:05:56;;;;;;;3.52;2.42;;;;;;;8.65;100.00;97988.30;1661137;85;21137;-66
2022/10/03 05:09:06;;;;;;;5.50;2.12;;;;;;;8.79;100.00;97979.60;1671111;86;21109;-67
2022/10/03 05:11:50;;;;;;;6.03;2.00;;;;;;;8.89;100.00;97971.25;1646728;85;21115;-67
2022/10/03 05:14:30;;;;;;;5.00;1.47;;;;;;;9.04;100.00;97978.81;1671471;85;21110;-69
2022/10/03 05:17:19;;;;;;;4.12;1.35;;;;;;;9.21;100.00;97978.44;1681410;85;21115;-66
2022/10/03 05:20:13;;;;;;;5.03;1.60;;;;;;;9.41;100.00;97971.21;1682522;85;21064;-69
2022/10/03 05:22:59;;;;;;;7.45;1.80;;;;;;;9.59;100.00;97971.35;1657919;85;21059;-69
2022/10/03 05:25:52;;;;;;;5.12;1.50;;;;;;;9.70;100.00;97964.02;1655887;85;21697;-65
2022/10/03 05:28:39;;;;;;;5.08;1.70;;;;;;;9.84;100.00;97985.69;1656006;86;21439;-65
2022/10/03 05:31:39;;;;;;;5.17;1.40;;;;;;;9.95;100.00;97985.11;1660909;85;21083;-66
2022/10/03 05:34:21;;;;;;;5.70;1.57;;;;;;;10.02;100.00;97991.49;1623738;86;21095;-69
2022/10/03 05:37:10;;;;;;;6.40;1.85;;;;;;;10.11;100.00;97989.62;1653278;85;21701;-69
2022/10/03 05:39:44;;;;;;;7.08;2.95;;;;;;;10.13;100.00;97981.16;1700140;84;21480;-67
2022/10/03 05:42:32;;;;;;;9.20;6.00;;;;;;;10.18;100.00;97983.77;1687665;84;21590;-66
2022/10/03 05:45:23;;;;;;;27.52;16.12;;;;;;;10.26;100.00;97989.27;1675653;84;21036;-65
2022/10/03 05:48:00;;;;;;;8.38;5.42;;;;;;;10.33;100.00;97984.19;1720039;82;21110;-69
2022/10/03 05:50:42;;;;;;;5.15;1.72;;;;;;;10.37;100.00;97999.33;1723689;82;21047;-69
2022/10/03 05:53:38;;;;;;;6.30;1.50;;;;;;;10.43;100.00;97990.72;1722961;82;21078;-68
2022/10/03 05:56:10;;;;;;;4.03;1.50;;;;;;;10.45;100.00;97989.83;1727327;82;21066;-71
2022/10/03 05:59:15;;;;;;;8.50;1.42;;;;;;;10.52;100.00;97992.12;1742250;82;21610;-68
2022/10/03 06:02:07;;;;;;;7.12;1.92;;;;;;;10.62;100.00;97988.32;1697365;83;21082;-70
2022/10/03 06:04:52;;;;;;;5.72;1.70;;;;;;;10.72;100.00;97987.48;1715921;82;21613;-67
2022/10/03 06:07:46;;;;;;;4.03;1.40;;;;;;;10.79;100.00;97996.55;1712310;84;21106;-67
2022/10/03 06:10:36;;;;;;;4.62;1.20;;;;;;;10.95;100.00;97997.16;1713581;82;21073;-70
2022/10/03 06:13:25;;;;;;;5.58;1.12;;;;;;;11.00;100.00;98003.02;1714345;82;21102;-67
2022/10/03 06:16:05;;;;;;;5.33;1.30;;;;;;;11.06;100.00;98009.91;1721493;82;21087;-67
2022/10/03 06:18:59;;;;;;;4.33;1.32;;;;;;;11.11;100.00;98007.06;1742076;82;21161;-69
2022/10/03 06:21:50;;;;;;;7.10;1.22;;;;;;;11.09;100.00;98009.27;1737511;82;21071;-70
2022/10/03 06:25:04;;;;;;;4.53;1.27;;;;;;;11.14;100.00;98028.20;1718792;82;21055;-67
2022/10/03 06:28:07;;;;;;;3.70;0.93;;;;;;;11.08;100.00;98019.95;1712789;83;21071;-67
2022/10/03 06:31:32;;;;;;;3.45;0.95;;;;;;;11.03;100.00;98026.08;1714693;82;21069;-70
2022/10/03 06:34:37;;;;;;;3.75;1.02;;;;;;;11.02;100.00;98020.41;1713701;82;21059;-69
2022/10/03 06:37:24;;;;;;;4.83;0.95;;;;;;;11.02;100.00;98013.61;1698463;82;21664;-65
2022/10/03 06:40:38;;;;;;;5.37;1.10;;;;;;;11.03;100.00;98028.25;1697839;82;22204;-65
2022/10/03 06:43:58;;;;;;;4.05;1.20;;;;;;;11.01;100.00;98035.95;1718728;82;21134;-69
2022/10/03 06:46:50;;;;;;;6.28;1.10;;;;;;;11.06;100.00;98037.70;1713657;82;21063;-69
2022/10/03 06:49:35;;;;;;;5.60;1.55;;;;;;;11.02;100.00;98034.03;1709546;83;21605;-68
2022/10/03 06:52:42;;;;;;;4.30;1.25;;;;;;;11.04;100.00;98037.22;1734792;82;21083;-69
2022/10/03 06:55:39;;;;;;;4.47;1.12;;;;;;;11.09;100.00;98047.40;1716342;82;21146;-66
2022/10/03 06:58:44;;;;;;;4.55;1.25;;;;;;;11.08;100.00;98040.92;1724686;82;22223;-69
2022/10/03 07:01:32;;;;;;;5.00;1.17;;;;;;;11.13;100.00;98042.93;1721714;82;22306;-70
2022/10/03 07:04:39;;;;;;;6.12;1.57;;;;;;;11.10;100.00;98049.02;1687422;84;21055;-67
2022/10/03 07:07:14;;;;;;;3.77;1.37;;;;;;;11.10;100.00;98047.66;1713498;82;21081;-72
2022/10/03 07:10:06;;;;;;;5.17;1.10;;;;;;;11.14;100.00;98054.62;1707437;84;21130;-68
2022/10/03 07:12:58;;;;;;;4.53;1.10;;;;;;;11.13;100.00;98050.30;1707118;84;21114;-66
2022/10/03 07:15:53;;;;;;;3.62;1.30;;;;;;;11.16;100.00;98053.78;1676905;82;21620;-72
2022/10/03 07:18:43;;;;;;;3.22;1.12;;;;;;;11.24;100.00;98043.44;1736970;82;22248;-67
2022/10/03 07:21:47;;;;;;;3.22;1.52;;;;;;;11.26;100.00;98052.12;1729092;82;21097;-67
2022/10/03 07:24:39;;;;;;;4.15;1.50;;;;;;;11.33;100.00;98048.38;1721073;82;21093;-72
2022/10/03 07:27:34;;;;;;;5.83;1.62;;;;;;;11.42;100.00;98041.00;1703145;82;21119;-68
2022/10/03 07:30:16;;;;;;;3.77;1.27;;;;;;;11.44;100.00;98049.09;1708752;82;21673;-68
2022/10/03 07:33:22;;;;;;;5.87;1.72;;;;;;;11.49;100.00;98041.34;1722950;83;21060;-71
2022/10/03 07:39:39;;;;;;;6.17;1.10;;;;;;;11.52;100.00;98043.98;1708212;84;21054;-72
2022/10/03 07:42:29;;;;;;;3.30;1.30;;;;;;;11.58;100.00;98041.36;1735403;82;21040;-67
2022/10/03 07:45:33;;;;;;;4.33;1.40;;;;;;;11.58;100.00;98029.91;1716136;82;21031;-67
2022/10/03 07:48:40;;;;;;;6.87;1.32;;;;;;;11.67;100.00;98042.16;1696176;84;21513;-71
2022/10/03 07:51:23;;;;;;;7.78;1.55;;;;;;;11.75;100.00;98034.03;1723413;82;21067;-68
2022/10/03 07:54:12;;;;;;;4.17;1.42;;;;;;;11.91;100.00;98041.95;1736954;82;21086;-73
2022/10/03 07:56:56;;;;;;;6.53;1.27;;;;;;;12.09;100.00;98035.94;1722504;82;21052;-72
2022/10/03 08:00:01;;;;;;;3.58;1.27;;;;;;;12.23;100.00;98026.20;1709050;84;21039;-76
2022/10/03 08:03:21;;;;;;;6.65;1.40;;;;;;;12.42;100.00;98037.02;1709120;84;21028;-67
2022/10/03 08:06:22;;;;;;;4.97;1.20;;;;;;;12.47;100.00;98030.56;1727110;82;21011;-70
2022/10/03 08:09:02;;;;;;;4.62;1.37;;;;;;;12.67;100.00;98030.44;1738366;82;21027;-69
2022/10/03 08:12:15;;;;;;;3.60;1.42;;;;;;;12.77;100.00;98028.72;1713160;82;21157;-71
2022/10/03 08:15:10;;;;;;;5.42;1.35;;;;;;;12.72;100.00;98031.05;1736265;82;21073;-71
2022/10/03 08:18:14;;;;;;;7.28;2.02;;;;;;;12.63;100.00;98026.76;1691585;84;21594;-68
2022/10/03 08:21:01;;;;;;;3.42;1.42;;;;;;;12.52;100.00;98024.14;1680407;84;21078;-73
2022/10/03 08:23:53;;;;;;;5.87;1.80;;;;;;;12.38;100.00;98027.06;1693207;85;21063;-70
2022/10/03 08:26:54;;;;;;;6.83;1.30;;;;;;;12.42;100.00;98034.29;1711768;82;21104;-71
2022/10/03 08:29:57;;;;;;;4.72;1.70;;;;;;;12.45;100.00;98033.63;1737005;82;21043;-73
2022/10/03 08:33:03;;;;;;;3.92;1.30;;;;;;;12.50;100.00;98030.50;1712234;82;21056;-70
2022/10/03 08:35:50;;;;;;;4.42;1.25;;;;;;;12.51;100.00;98037.53;1693054;82;21127;-72
2022/10/03 08:38:58;;;;;;;3.00;1.20;;;;;;;12.42;100.00;98028.02;1714315;82;21522;-73
2022/10/03 08:41:45;;;;;;;4.20;1.45;;;;;;;12.41;100.00;98038.13;1717596;82;21077;-69
2022/10/03 08:45:05;;;;;;;6.63;1.20;;;;;;;12.42;100.00;98045.77;1698349;82;21052;-68
2022/10/03 08:48:00;;;;;;;4.47;1.40;;;;;;;12.31;100.00;98043.13;1711101;82;21023;-69
2022/10/03 08:50:55;;;;;;;6.62;1.70;;;;;;;12.26;100.00;98046.81;1748824;81;21090;-71
2022/10/03 08:54:13;;;;;;;2.70;1.10;;;;;;;12.21;100.00;98055.19;1747548;82;21046;-67
2022/10/03 08:57:22;;;;;;;2.62;1.10;;;;;;;12.19;100.00;98048.42;1749315;82;21102;-72
2022/10/03 09:03:35;;;;;;;3.93;1.03;;;;;;;12.51;100.00;98046.53;1799615;79;22805;-73
2022/10/03 09:06:29;;;;;;;5.75;1.10;;;;;;;12.54;100.00;98051.33;1740214;81;21317;-69
2022/10/03 09:09:24;;;;;;;3.22;1.10;;;;;;;12.59;100.00;98049.81;1725139;82;21047;-69
2022/10/03 09:12:41;;;;;;;3.47;0.80;;;;;;;12.56;100.00;98036.01;1708349;82;21827;-78
2022/10/03 09:15:30;;;;;;;5.70;1.10;;;;;;;12.61;100.00;98049.50;1706176;82;21136;-67
2022/10/03 09:18:04;;;;;;;7.20;1.10;;;;;;;12.60;100.00;98050.62;1713433;82;21042;-74
2022/10/03 09:21:05;;;;;;;2.45;0.80;;;;;;;12.65;100.00;98059.42;1719872;82;21143;-66
2022/10/03 09:23:55;;;;;;;5.15;1.07;;;;;;;12.67;100.00;98058.55;1736661;82;21519;-69
2022/10/03 09:26:54;;;;;;;4.65;1.00;;;;;;;12.65;100.00;98051.79;1736278;82;21128;-69
2022/10/03 09:29:34;;;;;;;4.72;1.17;;;;;;;12.72;100.00;98040.61;1728192;82;21094;-69
2022/10/03 09:32:40;;;;;;;5.95;1.70;;;;;;;12.77;100.00;98038.27;1687109;84;21656;-72
2022/10/03 09:35:41;;;;;;;4.65;1.20;;;;;;;12.70;100.00;98043.44;1689157;84;21057;-76
2022/10/03 09:38:47;;;;;;;4.87;1.20;;;;;;;12.74;100.00;98047.13;1688304;84;21663;-67
2022/10/03 09:41:51;;;;;;;5.85;1.30;;;;;;;12.83;100.00;98035.03;1685182;84;21585;-67
2022/10/03 09:44:30;;;;;;;4.10;1.20;;;;;;;12.93;100.00;98042.08;1700410;84;22032;-70
2022/10/03 09:47:22;;;;;;;3.92;1.20;;;;;;;13.03;100.00;98040.34;1700102;84;21102;-70
2022/10/03 09:50:21;;;;;;;4.70;1.22;;;;;;;13.10;100.00;98037.13;1682719;84;21086;-69
2022/10/03 09:53:33;;;;;;;3.00;1.40;;;;;;;13.17;100.00;98034.13;1672261;86;21186;-72
2022/10/03 09:56:26;;;;;;;5.45;1.00;;;;;;;13.29;100.00;98040.22;1681273;84;21120;-70
2022/10/03 09:59:29;;;;;;;3.12;1.00;;;;;;;13.48;100.00;98039.23;1689064;85;21611;-71
2022/10/03 10:02:33;;;;;;;4.25;1.20;;;;;;;13.65;100.00;98034.21;1687357;84;21124;-71
2022/10/03 10:05:07;;;;;;;4.97;1.05;;;;;;;13.73;100.00;98033.36;1676359;84;21073;-72
2022/10/03 10:08:21;;;;;;;4.33;1.30;;;;;;;13.72;100.00;98031.19;1690016;85;21052;-70
2022/10/03 10:10:59;;;;;;;9.93;1.42;;;;;;;13.78;100.00;98052.31;1695623;83;21104;-71
2022/10/03 10:13:56;;;;;;;2.65;1.20;;;;;;;13.81;100.00;98043.44;1696614;83;21144;-72
2022/10/03 10:16:52;;;;;;;5.33;1.00;;;;;;;13.74;100.00;98042.61;1694126;83;21064;-68
2022/10/03 10:19:55;;;;;;;2.75;0.90;;;;;;;13.70;100.00;98042.23;1694250;84;21579;-70
2022/10/03 10:23:03;;;;;;;8.63;1.17;;;;;;;13.60;100.00;98047.53;1716167;83;21076;-70
2022/10/03 10:26:08;;;;;;;3.52;0.90;;;;;;;13.55;100.00;98038.70;1722854;83;21168;-70
2022/10/03 10:29:10;;;;;;;3.33;0.93;;;;;;;13.43;100.00;98042.95;1723080;83;21431;-70
2022/10/03 10:32:17;;;;;;;4.10;0.88;;;;;;;13.29;100.00;98053.89;1720526;83;21135;-75
2022/10/03 10:35:28;;;;;;;4.45;0.78;;;;;;;13.23;100.00;98054.66;1688974;84;21132;-74
2022/10/03 10:38:36;;;;;;;3.67;1.05;;;;;;;13.21;100.00;98048.73;1722226;83;21072;-73
2022/10/03 10:41:30;;;;;;;4.58;0.90;;;;;;;13.26;100.00;98053.98;1682298;83;22218;-70
2022/10/03 10:44:24;;;;;;;3.50;0.80;;;;;;;13.38;100.00;98059.56;1711755;83;21608;-72
2022/10/03 10:47:09;;;;;;;2.83;0.72;;;;;;;13.48;100.00;98050.17;1690567;83;21124;-75
2022/10/03 10:50:03;;;;;;;4.03;0.70;;;;;;;13.48;100.00;98061.11;1722704;83;21140;-70
2022/10/03 10:53:02;;;;;;;2.65;0.88;;;;;;;13.43;100.00;98062.65;1711203;83;21136;-68
2022/10/03 10:56:06;;;;;;;4.35;0.90;;;;;;;13.37;100.00;98063.42;1700166;83;21270;-72
2022/10/03 10:59:12;;;;;;;1.87;0.90;;;;;;;13.39;100.00;98075.41;1672329;84;21657;-71
2022/10/03 11:01:56;;;;;;;4.70;1.27;;;;;;;13.64;100.00;98085.95;1712852;83;21120;-73
2022/10/03 11:05:20;;;;;;;2.75;0.80;;;;;;;13.88;100.00;98073.80;1681973;84;21554;-72
2022/10/03 11:07:52;;;;;;;3.72;0.90;;;;;;;13.93;100.00;98071.64;1701870;84;21074;-70
2022/10/03 11:10:35;;;;;;;3.50;1.00;;;;;;;13.93;100.00;98081.22;1701177;84;21137;-69
2022/10/03 11:13:26;;;;;;;5.58;1.15;;;;;;;13.94;100.00;98084.77;1690659;84;21066;-73
2022/10/03 11:16:28;;;;;;;4.17;1.27;;;;;;;13.81;100.00;98080.36;1685056;84;21648;-73
2022/10/03 11:19:31;;;;;;;4.87;1.15;;;;;;;13.64;100.00;98087.31;1697063;84;21027;-71
2022/10/03 11:22:27;;;;;;;3.67;1.42;;;;;;;13.39;100.00;98091.20;1638014;84;21141;-70
2022/10/03 11:25:39;;;;;;;4.97;1.20;;;;;;;13.26;100.00;98089.52;1694087;84;21764;-68
2022/10/03 11:28:20;;;;;;;4.50;1.05;;;;;;;13.33;100.00;98085.70;1685020;85;22282;-69
2022/10/03 11:31:15;;;;;;;3.05;1.07;;;;;;;13.34;100.00;98088.68;1721435;82;21627;-73
2022/10/03 11:34:29;;;;;;;2.67;1.00;;;;;;;13.40;100.00;98087.35;1725814;82;21051;-69
2022/10/03 11:37:19;;;;;;;4.17;1.15;;;;;;;13.50;100.00;98093.59;1718512;82;21095;-71
2022/10/03 11:40:00;;;;;;;4.90;1.00;;;;;;;13.36;100.00;98085.04;1707814;83;21330;-75
2022/10/03 11:42:55;;;;;;;3.05;0.88;;;;;;;13.27;100.00;98081.56;1707719;84;21597;-70
2022/10/03 11:45:50;;;;;;;3.27;1.10;;;;;;;13.23;100.00;98081.98;1725876;82;21063;-69
2022/10/03 11:48:39;;;;;;;4.53;1.27;;;;;;;13.22;100.00;98078.20;1734288;82;21078;-67
2022/10/03 11:51:20;;;;;;;4.65;1.20;;;;;;;13.19;100.00;98081.59;1737103;82;21362;-73
2022/10/03 11:53:58;;;;;;;4.15;1.07;;;;;;;13.25;100.00;98077.56;1736950;82;21875;-74
2022/10/03 11:56:41;;;;;;;5.20;1.17;;;;;;;13.32;100.00;98080.58;1735933;82;21087;-68
2022/10/03 11:59:17;;;;;;;3.77;1.17;;;;;;;13.37;100.00;98077.08;1735064;82;21614;-69
2022/10/03 12:01:58;;;;;;;3.15;1.12;;;;;;;13.44;100.00;98087.49;1736825;81;21087;-69
2022/10/03 12:04:48;;;;;;;5.03;1.20;;;;;;;13.56;100.00;98074.49;1745547;82;21542;-74
2022/10/03 12:10:44;;;;;;;6.15;1.10;;;;;;;13.69;100.00;98068.77;1719554;82;21671;-68
2022/10/03 12:13:21;;;;;;;3.35;1.10;;;;;;;13.76;100.00;98079.17;1728286;82;21570;-67
2022/10/03 12:15:53;;;;;;;3.17;1.17;;;;;;;13.80;100.00;98074.65;1734512;82;21087;-70
2022/10/03 12:18:43;;;;;;;5.03;1.30;;;;;;;13.76;100.00;98070.97;1719095;82;20992;-72
2022/10/03 12:21:29;;;;;;;4.25;1.10;;;;;;;13.65;100.00;98076.59;1715751;82;21574;-70
2022/10/03 12:24:17;;;;;;;4.20;1.20;;;;;;;13.56;100.00;98086.80;1715729;83;21140;-68
2022/10/03 12:26:55;;;;;;;5.22;1.10;;;;;;;13.33;100.00;98095.27;1724433;82;21736;-72
2022/10/03 12:29:23;;;;;;;3.00;0.98;;;;;;;13.01;100.00;98104.05;1722153;82;21533;-70
2022/10/03 12:32:26;;;;;;;4.03;1.25;;;;;;;12.89;100.00;98107.45;1730882;82;21587;-69
2022/10/03 12:35:20;;;;;;;5.05;1.00;;;;;;;12.83;100.00;98104.66;1727948;82;21107;-71
2022/10/03 12:38:17;;;;;;;4.40;1.02;;;;;;;12.78;100.00;98101.31;1705284;83;21590;-70
2022/10/03 12:40:52;;;;;;;3.87;1.20;;;;;;;12.78;100.00;98099.95;1730139;82;21083;-70
2022/10/03 12:43:56;;;;;;;4.03;1.30;;;;;;;12.77;100.00;98112.80;1746745;82;21023;-67
2022/10/03 12:46:28;;;;;;;4.05;1.15;;;;;;;12.80;100.00;98101.78;1735709;82;21209;-73
2022/10/03 12:49:02;;;;;;;4.53;0.98;;;;;;;12.82;100.00;98101.69;1703477;82;21007;-69
2022/10/03 12:51:43;;;;;;;4.22;0.98;;;;;;;12.90;100.00;98099.50;1721363;82;21859;-73
2022/10/03 12:54:36;;;;;;;7.35;1.00;;;;;;;13.02;100.00;98092.56;1716800;83;21066;-67
2022/10/03 12:57:34;;;;;;;3.12;0.80;;;;;;;13.06;100.00;98091.59;1730756;82;21035;-72
2022/10/03 13:00:21;;;;;;;5.87;0.98;;;;;;;13.04;100.00;98096.56;1717986;82;21574;-70
2022/10/03 13:03:16;;;;;;;4.80;1.27;;;;;;;13.01;100.00;98095.85;1719138;82;21091;-70
2022/10/03 13:05:58;;;;;;;5.83;1.30;;;;;;;12.90;100.00;98102.23;1713066;82;21524;-69
2022/10/03 13:08:50;;;;;;;5.22;1.00;;;;;;;12.65;100.00;98112.65;1722836;82;21673;-68
2022/10/03 13:11:25;;;;;;;2.25;0.57;;;;;;;12.38;100.00;98113.02;1720500;82;21140;-72
2022/10/03 13:14:18;;;;;;;4.33;0.95;;;;;;;12.12;100.00;98105.39;1722738;82;21088;-70
2022/10/03 13:17:11;;;;;;;2.12;0.80;;;;;;;11.89;100.00;98112.94;1716708;82;21092;-73
2022/10/03 13:19:50;;;;;;;2.05;0.80;;;;;;;11.76;100.00;98105.13;1713739;82;21048;-67
2022/10/03 13:22:32;;;;;;;3.47;0.88;;;;;;;11.74;100.00;98107.38;1711023;82;21554;-71
2022/10/03 13:25:30;;;;;;;7.35;1.15;;;;;;;11.74;100.00;98101.13;1707043;82;21120;-66
2022/10/03 13:28:36;;;;;;;4.53;0.98;;;;;;;11.77;100.00;98107.30;1692943;85;21563;-66
2022/10/03 13:31:23;;;;;;;3.47;1.00;;;;;;;11.81;100.00;98098.17;1732898;82;21130;-67
2022/10/03 13:33:52;;;;;;;2.25;0.90;;;;;;;11.80;100.00;98103.93;1689238;84;21526;-70
2022/10/03 13:36:33;;;;;;;4.00;1.12;;;;;;;11.81;100.00;98107.71;1718199;82;21524;-70
2022/10/03 13:39:22;;;;;;;4.22;1.15;;;;;;;11.87;100.00;98104.26;1723823;83;21045;-65
2022/10/03 13:42:09;;;;;;;6.00;1.30;;;;;;;11.91;100.00;98104.67;1725562;82;21535;-69
2022/10/03 13:44:53;;;;;;;4.75;1.20;;;;;;;11.95;100.00;98098.02;1708643;84;21055;-69
2022/10/03 13:48:06;;;;;;;3.58;1.00;;;;;;;12.04;100.00;98100.20;1704272;84;20992;-72
2022/10/03 13:50:57;;;;;;;4.78;1.10;;;;;;;12.10;100.00;98098.91;1716202;82;21576;-67